sensor_id;sensor_type;location;lat;lon;timestamp;pressure;altitude;pressure_sealevel;temperature;humidity
34328;BME280;20588;48.840;10.064;2023-02-27T00:02:22;96845.06;;;-2.93;nan
34328;BME280;20588;48.840;10.064;2023-02-27T00:04:48;96849.50;;;-2.85;nan
34328;BME280;20588;48.840;10.064;2023-02-27T00:07:15;96842.41;;;-2.91;nan
34328;BME280;20588;48.840;10.064;2023-02-27T00:09:42;96841.09;;;-2.75;nan
34328;BME280;20588;48.840;10.064;2023-02-27T00:12:08;96857.72;;;-2.83;nan
34328;BME280;20588;48.840;10.064;2023-02-27T00:14:35;96846.25;;;-2.76;nan
34328;BME280;20588;48.840;10.064;2023-02-27T00:17:01;96848.72;;;-2.65;nan
34328;BME280;20588;48.840;10.064;2023-02-27T00:19:27;96849.09;;;-2.70;nan
34328;BME280;20588;48.840;10.064;2023-02-27T00:21:53;96850.28;;;-2.53;nan
34328;BME280;20588;48.840;10.064;2023-02-27T00:24:19;96849.84;;;-2.58;nan
34328;BME280;20588;48.840;10.064;2023-02-27T00:26:47;96850.16;;;-2.52;nan
34328;BME280;20588;48.840;10.064;2023-02-27T00:29:13;96851.94;;;-2.43;nan
34328;BME280;20588;48.840;10.064;2023-02-27T00:31:39;96849.56;;;-2.44;nan
34328;BME280;20588;48.840;10.064;2023-02-27T00:34:05;96846.53;;;-2.38;nan
34328;BME280;20588;48.840;10.064;2023-02-27T00:36:31;96851.13;;;-2.43;nan
34328;BME280;20588;48.840;10.064;2023-02-27T00:38:57;96856.38;;;-2.35;nan
34328;BME280;20588;48.840;10.064;2023-02-27T00:41:23;96850.41;;;-2.34;nan
34328;BME280;20588;48.840;10.064;2023-02-27T00:43:49;96848.06;;;-2.26;nan
34328;BME280;20588;48.840;10.064;2023-02-27T00:46:15;96855.38;;;-2.23;nan
34328;BME280;20588;48.840;10.064;2023-02-27T00:48:41;96853.03;;;-2.36;nan
34328;BME280;20588;48.840;10.064;2023-02-27T00:51:07;96855.75;;;-2.28;nan
34328;BME280;20588;48.840;10.064;2023-02-27T00:53:33;96857.63;;;-2.41;nan
34328;BME280;20588;48.840;10.064;2023-02-27T00:55:59;96857.88;;;-2.44;nan
34328;BME280;20588;48.840;10.064;2023-02-27T00:58:25;96857.88;;;-2.44;nan
34328;BME280;20588;48.840;10.064;2023-02-27T01:00:51;96841.53;;;-2.29;nan
34328;BME280;20588;48.840;10.064;2023-02-27T01:03:17;96851.94;;;-2.43;nan
34328;BME280;20588;48.840;10.064;2023-02-27T01:05:43;96847.88;;;-2.34;nan
34328;BME280;20588;48.840;10.064;2023-02-27T01:08:09;96862.78;;;-2.42;nan
34328;BME280;20588;48.840;10.064;2023-02-27T01:10:36;96856.41;;;-2.46;nan
34328;BME280;20588;48.840;10.064;2023-02-27T01:13:02;96848.78;;;-2.56;nan
34328;BME280;20588;48.840;10.064;2023-02-27T01:15:28;96842.03;;;-2.55;nan
34328;BME280;20588;48.840;10.064;2023-02-27T01:17:54;96843.22;;;-2.59;nan
34328;BME280;20588;48.840;10.064;2023-02-27T01:20:20;96850.66;;;-2.58;nan
34328;BME280;20588;48.840;10.064;2023-02-27T01:22:46;96841.66;;;-2.51;nan
34328;BME280;20588;48.840;10.064;2023-02-27T01:25:12;96854.19;;;-2.60;nan
34328;BME280;20588;48.840;10.064;2023-02-27T01:27:38;96844.91;;;-2.60;nan
34328;BME280;20588;48.840;10.064;2023-02-27T01:30:05;96852.97;;;-2.45;nan
34328;BME280;20588;48.840;10.064;2023-02-27T01:32:32;96851.25;;;-2.45;nan
34328;BME280;20588;48.840;10.064;2023-02-27T01:34:58;96855.06;;;-2.50;nan
34328;BME280;20588;48.840;10.064;2023-02-27T01:37:24;96850.53;;;-2.56;nan
34328;BME280;20588;48.840;10.064;2023-02-27T01:39:50;96853.66;;;-2.64;nan
34328;BME280;20588;48.840;10.064;2023-02-27T01:42:23;96853.09;;;-2.47;nan
34328;BME280;20588;48.840;10.064;2023-02-27T01:47:37;96839.28;;;-2.52;nan
34328;BME280;20588;48.840;10.064;2023-02-27T01:50:04;96843.81;;;-2.67;nan
34328;BME280;20588;48.840;10.064;2023-02-27T01:52:32;96845.88;;;-2.72;nan
34328;BME280;20588;48.840;10.064;2023-02-27T01:54:59;96848.53;;;-2.73;nan
34328;BME280;20588;48.840;10.064;2023-02-27T01:57:25;96848.53;;;-2.73;nan
34328;BME280;20588;48.840;10.064;2023-02-27T01:59:52;96846.34;;;-2.67;nan
34328;BME280;20588;48.840;10.064;2023-02-27T02:02:26;96843.25;;;-2.70;nan
34328;BME280;20588;48.840;10.064;2023-02-27T02:04:55;96846.59;;;-2.81;nan
34328;BME280;20588;48.840;10.064;2023-02-27T02:07:21;96834.72;;;-2.79;nan
34328;BME280;20588;48.840;10.064;2023-02-27T02:09:52;96838.69;;;-2.76;nan
34328;BME280;20588;48.840;10.064;2023-02-27T02:12:29;96834.34;;;-2.74;nan
34328;BME280;20588;48.840;10.064;2023-02-27T02:14:56;96825.19;;;-2.75;nan
34328;BME280;20588;48.840;10.064;2023-02-27T02:23:36;96851.06;;;-2.84;nan
34328;BME280;20588;48.840;10.064;2023-02-27T02:32:10;96840.88;;;-2.83;nan
34328;BME280;20588;48.840;10.064;2023-02-27T02:40:51;96839.22;;;-2.93;nan
34328;BME280;20588;48.840;10.064;2023-02-27T02:43:30;96843.22;;;-2.91;nan
34328;BME280;20588;48.840;10.064;2023-02-27T02:49:59;96849.28;;;-2.93;nan
34328;BME280;20588;48.840;10.064;2023-02-27T03:03:40;96861.28;;;-2.97;nan
34328;BME280;20588;48.840;10.064;2023-02-27T03:06:21;96852.50;;;-3.02;nan
34328;BME280;20588;48.840;10.064;2023-02-27T03:09:04;96859.47;;;-3.06;nan
34328;BME280;20588;48.840;10.064;2023-02-27T03:11:35;96854.09;;;-3.01;nan
34328;BME280;20588;48.840;10.064;2023-02-27T03:14:12;96860.63;;;-3.10;nan
34328;BME280;20588;48.840;10.064;2023-02-27T03:16:43;96852.75;;;-3.05;nan
34328;BME280;20588;48.840;10.064;2023-02-27T03:19:12;96850.00;;;-3.02;nan
34328;BME280;20588;48.840;10.064;2023-02-27T03:21:55;96853.78;;;-3.08;nan
34328;BME280;20588;48.840;10.064;2023-02-27T03:27:36;96858.59;;;-3.16;nan
34328;BME280;20588;48.840;10.064;2023-02-27T03:30:07;96857.19;;;-3.09;nan
34328;BME280;20588;48.840;10.064;2023-02-27T03:33:10;96852.84;;;-3.07;nan
34328;BME280;20588;48.840;10.064;2023-02-27T03:35:58;96856.31;;;-3.08;nan
34328;BME280;20588;48.840;10.064;2023-02-27T03:43:29;96868.41;;;-3.02;nan
34328;BME280;20588;48.840;10.064;2023-02-27T03:46:06;96859.13;;;-3.01;nan
34328;BME280;20588;48.840;10.064;2023-02-27T03:48:33;96861.13;;;-3.16;nan
34328;BME280;20588;48.840;10.064;2023-02-27T03:51:00;96863.88;;;-3.19;nan
34328;BME280;20588;48.840;10.064;2023-02-27T03:53:37;96869.69;;;-3.18;nan
34328;BME280;20588;48.840;10.064;2023-02-27T03:56:08;96864.09;;;-3.22;nan
34328;BME280;20588;48.840;10.064;2023-02-27T03:58:35;96875.97;;;-3.13;nan
34328;BME280;20588;48.840;10.064;2023-02-27T04:01:02;96873.56;;;-3.14;nan
34328;BME280;20588;48.840;10.064;2023-02-27T04:03:28;96866.72;;;-3.12;nan
34328;BME280;20588;48.840;10.064;2023-02-27T04:05:57;96863.72;;;-3.06;nan
34328;BME280;20588;48.840;10.064;2023-02-27T04:09:05;96874.44;;;-3.04;nan
34328;BME280;20588;48.840;10.064;2023-02-27T04:14:20;96867.59;;;-3.02;nan
34328;BME280;20588;48.840;10.064;2023-02-27T04:23:07;96862.28;;;-3.20;nan
34328;BME280;20588;48.840;10.064;2023-02-27T04:28:26;96864.88;;;-3.10;nan
34328;BME280;20588;48.840;10.064;2023-02-27T04:31:15;96872.09;;;-3.28;nan
34328;BME280;20588;48.840;10.064;2023-02-27T04:34:05;96873.16;;;-3.30;nan
34328;BME280;20588;48.840;10.064;2023-02-27T04:36:46;96871.06;;;-3.25;nan
34328;BME280;20588;48.840;10.064;2023-02-27T04:39:44;96872.22;;;-3.40;nan
34328;BME280;20588;48.840;10.064;2023-02-27T04:42:18;96879.41;;;-3.36;nan
34328;BME280;20588;48.840;10.064;2023-02-27T04:44:47;96886.06;;;-3.35;nan
34328;BME280;20588;48.840;10.064;2023-02-27T04:47:16;96890.53;;;-3.27;nan
34328;BME280;20588;48.840;10.064;2023-02-27T04:49:47;96887.97;;;-3.16;nan
34328;BME280;20588;48.840;10.064;2023-02-27T04:52:21;96885.47;;;-3.16;nan
34328;BME280;20588;48.840;10.064;2023-02-27T04:54:59;96883.88;;;-3.17;nan
34328;BME280;20588;48.840;10.064;2023-02-27T04:57:36;96886.50;;;-3.19;nan
34328;BME280;20588;48.840;10.064;2023-02-27T05:00:09;96891.19;;;-3.25;nan
34328;BME280;20588;48.840;10.064;2023-02-27T05:02:41;96887.66;;;-3.23;nan
34328;BME280;20588;48.840;10.064;2023-02-27T05:05:16;96881.59;;;-3.20;nan
34328;BME280;20588;48.840;10.064;2023-02-27T05:07:56;96887.75;;;-3.13;nan
34328;BME280;20588;48.840;10.064;2023-02-27T05:10:33;96880.53;;;-3.07;nan
34328;BME280;20588;48.840;10.064;2023-02-27T05:16:04;96884.22;;;-3.11;nan
34328;BME280;20588;48.840;10.064;2023-02-27T05:18:32;96888.88;;;-3.06;nan
34328;BME280;20588;48.840;10.064;2023-02-27T05:21:20;96890.81;;;-3.10;nan
34328;BME280;20588;48.840;10.064;2023-02-27T05:24:35;96896.66;;;-3.09;nan
34328;BME280;20588;48.840;10.064;2023-02-27T05:27:43;96892.31;;;-3.07;nan
34328;BME280;20588;48.840;10.064;2023-02-27T05:29:52;96896.44;;;-3.06;nan
34328;BME280;20588;48.840;10.064;2023-02-27T05:35:20;96897.09;;;-3.04;nan
34328;BME280;20588;48.840;10.064;2023-02-27T05:38:29;96898.72;;;-3.14;nan
34328;BME280;20588;48.840;10.064;2023-02-27T05:41:00;96894.75;;;-3.17;nan
34328;BME280;20588;48.840;10.064;2023-02-27T05:43:31;96904.22;;;-3.09;nan
34328;BME280;20588;48.840;10.064;2023-02-27T05:46:07;96905.22;;;-3.01;nan
34328;BME280;20588;48.840;10.064;2023-02-27T05:48:45;96904.09;;;-3.08;nan
34328;BME280;20588;48.840;10.064;2023-02-27T05:51:14;96907.38;;;-2.96;nan
34328;BME280;20588;48.840;10.064;2023-02-27T05:53:47;96908.19;;;-2.96;nan
34328;BME280;20588;48.840;10.064;2023-02-27T05:56:18;96908.66;;;-3.02;nan
34328;BME280;20588;48.840;10.064;2023-02-27T05:59:03;96910.81;;;-2.97;nan
34328;BME280;20588;48.840;10.064;2023-02-27T06:01:31;96904.97;;;-2.87;nan
34328;BME280;20588;48.840;10.064;2023-02-27T06:03:58;96921.56;;;-2.95;nan
34328;BME280;20588;48.840;10.064;2023-02-27T06:06:24;96912.41;;;-2.96;nan
34328;BME280;20588;48.840;10.064;2023-02-27T06:08:50;96912.19;;;-3.04;nan
34328;BME280;20588;48.840;10.064;2023-02-27T06:11:16;96908.66;;;-3.02;nan
34328;BME280;20588;48.840;10.064;2023-02-27T06:13:42;96909.78;;;-2.95;nan
34328;BME280;20588;48.840;10.064;2023-02-27T06:16:13;96912.88;;;-2.91;nan
34328;BME280;20588;48.840;10.064;2023-02-27T06:18:39;96917.44;;;-2.85;nan
34328;BME280;20588;48.840;10.064;2023-02-27T06:21:05;96922.34;;;-2.84;nan
34328;BME280;20588;48.840;10.064;2023-02-27T06:23:31;96914.34;;;-2.89;nan
34328;BME280;20588;48.840;10.064;2023-02-27T06:25:58;96926.91;;;-2.78;nan
34328;BME280;20588;48.840;10.064;2023-02-27T06:28:24;96930.34;;;-2.79;nan
34328;BME280;20588;48.840;10.064;2023-02-27T06:30:56;96928.59;;;-2.67;nan
34328;BME280;20588;48.840;10.064;2023-02-27T06:33:23;96931.00;;;-2.66;nan
34328;BME280;20588;48.840;10.064;2023-02-27T06:35:50;96932.81;;;-2.57;nan
34328;BME280;20588;48.840;10.064;2023-02-27T06:38:17;96928.94;;;-2.61;nan
34328;BME280;20588;48.840;10.064;2023-02-27T06:40:43;96935.91;;;-2.33;nan
34328;BME280;20588;48.840;10.064;2023-02-27T06:43:09;96932.03;;;-1.64;nan
34328;BME280;20588;48.840;10.064;2023-02-27T06:45:35;96931.38;;;-0.77;nan
34328;BME280;20588;48.840;10.064;2023-02-27T06:48:01;96934.59;;;-0.75;nan
34328;BME280;20588;48.840;10.064;2023-02-27T06:50:27;96939.97;;;-0.02;nan
34328;BME280;20588;48.840;10.064;2023-02-27T06:52:53;96929.00;;;0.82;nan
34328;BME280;20588;48.840;10.064;2023-02-27T06:55:19;96928.63;;;1.83;nan
34328;BME280;20588;48.840;10.064;2023-02-27T06:57:47;96929.25;;;2.03;nan
34328;BME280;20588;48.840;10.064;2023-02-27T07:00:14;96935.28;;;1.49;nan
34328;BME280;20588;48.840;10.064;2023-02-27T07:02:41;96931.16;;;1.66;nan
34328;BME280;20588;48.840;10.064;2023-02-27T07:05:08;96938.63;;;1.67;nan
34328;BME280;20588;48.840;10.064;2023-02-27T07:07:34;96936.69;;;1.97;nan
34328;BME280;20588;48.840;10.064;2023-02-27T07:10:00;96932.81;;;2.10;nan
34328;BME280;20588;48.840;10.064;2023-02-27T07:12:26;96931.75;;;1.95;nan
34328;BME280;20588;48.840;10.064;2023-02-27T07:14:52;96939.97;;;1.44;nan
34328;BME280;20588;48.840;10.064;2023-02-27T07:17:18;96938.78;;;2.01;nan
34328;BME280;20588;48.840;10.064;2023-02-27T07:19:44;96927.97;;;3.01;nan
34328;BME280;20588;48.840;10.064;2023-02-27T07:22:11;96940.47;;;3.44;nan
34328;BME280;20588;48.840;10.064;2023-02-27T07:24:37;96940.16;;;3.47;nan
34328;BME280;20588;48.840;10.064;2023-02-27T07:27:03;96935.59;;;3.67;nan
34328;BME280;20588;48.840;10.064;2023-02-27T07:29:29;96949.94;;;4.00;nan
34328;BME280;20588;48.840;10.064;2023-02-27T07:31:55;96939.75;;;4.24;nan
34328;BME280;20588;48.840;10.064;2023-02-27T07:34:21;96939.94;;;4.39;nan
34328;BME280;20588;48.840;10.064;2023-02-27T07:36:47;96951.53;;;4.09;nan
34328;BME280;20588;48.840;10.064;2023-02-27T07:39:14;96942.63;;;4.21;nan
34328;BME280;20588;48.840;10.064;2023-02-27T07:41:40;96940.16;;;4.76;nan
34328;BME280;20588;48.840;10.064;2023-02-27T07:44:06;96937.38;;;4.07;nan
34328;BME280;20588;48.840;10.064;2023-02-27T07:46:33;96945.06;;;4.93;nan
34328;BME280;20588;48.840;10.064;2023-02-27T07:48:59;96944.84;;;4.32;nan
34328;BME280;20588;48.840;10.064;2023-02-27T07:51:25;96939.47;;;3.95;nan
34328;BME280;20588;48.840;10.064;2023-02-27T07:53:51;96938.81;;;3.93;nan
34328;BME280;20588;48.840;10.064;2023-02-27T07:56:18;96941.69;;;3.90;nan
34328;BME280;20588;48.840;10.064;2023-02-27T07:58:44;96948.03;;;3.78;nan
34328;BME280;20588;48.840;10.064;2023-02-27T08:01:10;96949.63;;;4.11;nan
34328;BME280;20588;48.840;10.064;2023-02-27T08:03:36;96952.13;;;4.75;nan
34328;BME280;20588;48.840;10.064;2023-02-27T08:06:02;96955.06;;;5.72;nan
34328;BME280;20588;48.840;10.064;2023-02-27T08:08:28;96948.22;;;5.42;nan
34328;BME280;20588;48.840;10.064;2023-02-27T08:10:54;96956.66;;;5.42;nan
34328;BME280;20588;48.840;10.064;2023-02-27T08:13:21;96947.91;;;5.37;nan
34328;BME280;20588;48.840;10.064;2023-02-27T08:15:47;96957.38;;;5.28;nan
34328;BME280;20588;48.840;10.064;2023-02-27T08:18:13;96956.88;;;5.33;nan
34328;BME280;20588;48.840;10.064;2023-02-27T08:20:39;96958.31;;;4.89;nan
34328;BME280;20588;48.840;10.064;2023-02-27T08:23:05;96964.59;;;4.46;nan
34328;BME280;20588;48.840;10.064;2023-02-27T08:25:32;96963.97;;;4.28;nan
34328;BME280;20588;48.840;10.064;2023-02-27T08:27:58;96960.16;;;5.03;nan
34328;BME280;20588;48.840;10.064;2023-02-27T08:30:24;96952.38;;;5.35;nan
34328;BME280;20588;48.840;10.064;2023-02-27T08:32:50;96950.38;;;6.80;nan
34328;BME280;20588;48.840;10.064;2023-02-27T08:35:16;96951.16;;;8.59;nan
34328;BME280;20588;48.840;10.064;2023-02-27T08:37:42;96945.75;;;10.55;nan
34328;BME280;20588;48.840;10.064;2023-02-27T08:40:09;96940.66;;;12.38;nan
34328;BME280;20588;48.840;10.064;2023-02-27T08:47:27;96938.91;;;16.47;nan
34328;BME280;20588;48.840;10.064;2023-02-27T08:49:53;96941.78;;;15.61;nan
34328;BME280;20588;48.840;10.064;2023-02-27T08:52:21;96936.47;;;16.57;nan
34328;BME280;20588;48.840;10.064;2023-02-27T08:54:47;96959.63;;;14.42;nan
34328;BME280;20588;48.840;10.064;2023-02-27T08:57:13;96957.63;;;12.28;nan
34328;BME280;20588;48.840;10.064;2023-02-27T08:59:39;96962.47;;;12.42;nan
34328;BME280;20588;48.840;10.064;2023-02-27T09:02:05;96959.00;;;10.72;nan
34328;BME280;20588;48.840;10.064;2023-02-27T09:04:31;96960.41;;;10.61;nan
34328;BME280;20588;48.840;10.064;2023-02-27T09:06:57;96965.72;;;10.14;nan
34328;BME280;20588;48.840;10.064;2023-02-27T09:09:24;96970.00;;;9.41;nan
34328;BME280;20588;48.840;10.064;2023-02-27T09:11:50;96963.66;;;9.90;nan
34328;BME280;20588;48.840;10.064;2023-02-27T09:14:16;96960.91;;;11.09;nan
34328;BME280;20588;48.840;10.064;2023-02-27T09:16:43;96972.00;;;12.17;nan
34328;BME280;20588;48.840;10.064;2023-02-27T09:19:10;96959.22;;;13.57;nan
34328;BME280;20588;48.840;10.064;2023-02-27T09:21:37;96962.19;;;12.57;nan
34328;BME280;20588;48.840;10.064;2023-02-27T09:24:04;96965.50;;;12.33;nan
34328;BME280;20588;48.840;10.064;2023-02-27T09:26:30;96971.00;;;12.43;nan
34328;BME280;20588;48.840;10.064;2023-02-27T09:28:57;96966.28;;;14.38;nan
34328;BME280;20588;48.840;10.064;2023-02-27T09:31:23;96959.25;;;12.96;nan
34328;BME280;20588;48.840;10.064;2023-02-27T09:33:49;96975.53;;;11.85;nan
34328;BME280;20588;48.840;10.064;2023-02-27T09:36:15;96973.16;;;9.43;nan
34328;BME280;20588;48.840;10.064;2023-02-27T09:38:41;96966.66;;;11.75;nan
34328;BME280;20588;48.840;10.064;2023-02-27T09:46:49;96970.72;;;17.25;nan
34328;BME280;20588;48.840;10.064;2023-02-27T09:49:19;96967.88;;;17.65;nan
34328;BME280;20588;48.840;10.064;2023-02-27T09:51:49;96983.31;;;17.93;nan
34328;BME280;20588;48.840;10.064;2023-02-27T09:54:15;96978.28;;;16.11;nan
34328;BME280;20588;48.840;10.064;2023-02-27T09:56:46;96970.81;;;16.14;nan
34328;BME280;20588;48.840;10.064;2023-02-27T09:59:20;96981.41;;;15.85;nan
34328;BME280;20588;48.840;10.064;2023-02-27T10:02:36;96979.25;;;16.38;nan
34328;BME280;20588;48.840;10.064;2023-02-27T10:11:04;96987.47;;;17.13;nan
34328;BME280;20588;48.840;10.064;2023-02-27T10:13:41;96998.41;;;13.72;nan
34328;BME280;20588;48.840;10.064;2023-02-27T10:16:16;96987.25;;;14.19;nan
34328;BME280;20588;48.840;10.064;2023-02-27T10:19:01;96996.91;;;13.64;nan
34328;BME280;20588;48.840;10.064;2023-02-27T10:21:37;96993.13;;;12.82;nan
34328;BME280;20588;48.840;10.064;2023-02-27T10:26:57;97010.28;;;12.45;nan
34328;BME280;20588;48.840;10.064;2023-02-27T10:29:31;97018.50;;;9.57;nan
34328;BME280;20588;48.840;10.064;2023-02-27T10:34:30;97018.78;;;10.48;nan
34328;BME280;20588;48.840;10.064;2023-02-27T10:37:01;97012.91;;;8.85;nan
34328;BME280;20588;48.840;10.064;2023-02-27T10:39:27;97014.66;;;8.78;nan
34328;BME280;20588;48.840;10.064;2023-02-27T10:42:01;97019.69;;;8.92;nan
34328;BME280;20588;48.840;10.064;2023-02-27T10:44:29;97037.22;;;8.40;nan
34328;BME280;20588;48.840;10.064;2023-02-27T10:46:56;97026.06;;;6.89;nan
34328;BME280;20588;48.840;10.064;2023-02-27T10:49:22;97030.28;;;5.53;nan
34328;BME280;20588;48.840;10.064;2023-02-27T10:52:15;97034.84;;;6.05;nan
34328;BME280;20588;48.840;10.064;2023-02-27T10:54:42;97029.91;;;6.71;nan
34328;BME280;20588;48.840;10.064;2023-02-27T10:57:29;97032.16;;;6.88;nan
34328;BME280;20588;48.840;10.064;2023-02-27T10:59:59;97040.66;;;6.21;nan
34328;BME280;20588;48.840;10.064;2023-02-27T11:05:00;97036.03;;;5.01;nan
34328;BME280;20588;48.840;10.064;2023-02-27T11:07:34;97037.44;;;5.11;nan
34328;BME280;20588;48.840;10.064;2023-02-27T11:12:41;97018.66;;;7.09;nan
34328;BME280;20588;48.840;10.064;2023-02-27T11:17:39;97033.16;;;5.97;nan
34328;BME280;20588;48.840;10.064;2023-02-27T11:20:30;97006.50;;;7.90;nan
34328;BME280;20588;48.840;10.064;2023-02-27T11:23:14;96997.47;;;9.06;nan
34328;BME280;20588;48.840;10.064;2023-02-27T11:25:41;97007.34;;;7.76;nan
34328;BME280;20588;48.840;10.064;2023-02-27T11:28:28;97009.13;;;6.74;nan
34328;BME280;20588;48.840;10.064;2023-02-27T11:30:57;97014.00;;;6.01;nan
34328;BME280;20588;48.840;10.064;2023-02-27T11:33:24;97005.78;;;5.44;nan
34328;BME280;20588;48.840;10.064;2023-02-27T11:35:52;97003.13;;;5.99;nan
34328;BME280;20588;48.840;10.064;2023-02-27T11:38:23;96992.44;;;6.78;nan
34328;BME280;20588;48.840;10.064;2023-02-27T11:40:53;96998.94;;;6.29;nan
34328;BME280;20588;48.840;10.064;2023-02-27T11:43:29;96994.25;;;5.48;nan
34328;BME280;20588;48.840;10.064;2023-02-27T11:46:02;97001.38;;;5.61;nan
34328;BME280;20588;48.840;10.064;2023-02-27T11:48:45;96996.53;;;5.43;nan
34328;BME280;20588;48.840;10.064;2023-02-27T11:54:29;97002.44;;;6.50;nan
34328;BME280;20588;48.840;10.064;2023-02-27T11:57:19;97002.38;;;5.60;nan
34328;BME280;20588;48.840;10.064;2023-02-27T11:59:57;97001.31;;;5.46;nan
34328;BME280;20588;48.840;10.064;2023-02-27T12:02:57;96996.97;;;5.08;nan
34328;BME280;20588;48.840;10.064;2023-02-27T12:05:37;97008.06;;;4.53;nan
34328;BME280;20588;48.840;10.064;2023-02-27T12:11:01;96990.31;;;4.83;nan
34328;BME280;20588;48.840;10.064;2023-02-27T12:13:32;96996.25;;;5.30;nan
34328;BME280;20588;48.840;10.064;2023-02-27T12:16:23;96997.81;;;5.39;nan
34328;BME280;20588;48.840;10.064;2023-02-27T12:19:00;96995.91;;;5.72;nan
34328;BME280;20588;48.840;10.064;2023-02-27T12:21:35;96996.56;;;5.35;nan
34328;BME280;20588;48.840;10.064;2023-02-27T12:27:20;96995.34;;;6.38;nan
34328;BME280;20588;48.840;10.064;2023-02-27T12:30:09;97002.00;;;4.62;nan
34328;BME280;20588;48.840;10.064;2023-02-27T12:33:31;96987.03;;;5.29;nan
34328;BME280;20588;48.840;10.064;2023-02-27T12:35:57;96988.97;;;5.58;nan
34328;BME280;20588;48.840;10.064;2023-02-27T12:38:24;96993.34;;;5.41;nan
34328;BME280;20588;48.840;10.064;2023-02-27T12:41:11;96985.56;;;5.35;nan
34328;BME280;20588;48.840;10.064;2023-02-27T12:49:45;96975.31;;;6.27;nan
34328;BME280;20588;48.840;10.064;2023-02-27T12:52:38;96990.72;;;6.19;nan
34328;BME280;20588;48.840;10.064;2023-02-27T12:55:20;96990.75;;;5.80;nan
34328;BME280;20588;48.840;10.064;2023-02-27T13:01:44;96985.19;;;6.30;nan
34328;BME280;20588;48.840;10.064;2023-02-27T13:03:59;96983.47;;;6.45;nan
34328;BME280;20588;48.840;10.064;2023-02-27T13:09:19;96980.16;;;5.99;nan
34328;BME280;20588;48.840;10.064;2023-02-27T13:15:04;96986.78;;;5.47;nan
34328;BME280;20588;48.840;10.064;2023-02-27T13:17:33;96987.03;;;4.43;nan
34328;BME280;20588;48.840;10.064;2023-02-27T13:20:04;96979.53;;;4.09;nan
34328;BME280;20588;48.840;10.064;2023-02-27T13:27:47;96998.47;;;4.79;nan
34328;BME280;20588;48.840;10.064;2023-02-27T13:30:23;96986.38;;;3.85;nan
34328;BME280;20588;48.840;10.064;2023-02-27T13:35:50;96987.94;;;3.28;nan
34328;BME280;20588;48.840;10.064;2023-02-27T13:41:17;96989.06;;;2.92;nan
34328;BME280;20588;48.840;10.064;2023-02-27T13:43:43;96988.66;;;3.04;nan
34328;BME280;20588;48.840;10.064;2023-02-27T13:54:38;96979.16;;;3.64;nan
34328;BME280;20588;48.840;10.064;2023-02-27T13:57:16;96988.13;;;4.00;nan
34328;BME280;20588;48.840;10.064;2023-02-27T13:59:51;97003.94;;;3.54;nan
34328;BME280;20588;48.840;10.064;2023-02-27T14:02:34;96990.19;;;2.97;nan
34328;BME280;20588;48.840;10.064;2023-02-27T14:05:06;96984.91;;;2.91;nan
34328;BME280;20588;48.840;10.064;2023-02-27T14:08:07;96996.03;;;2.64;nan
34328;BME280;20588;48.840;10.064;2023-02-27T14:10:36;96991.53;;;2.58;nan
34328;BME280;20588;48.840;10.064;2023-02-27T14:13:03;97000.44;;;2.62;nan
34328;BME280;20588;48.840;10.064;2023-02-27T14:17:59;97001.75;;;2.41;nan
34328;BME280;20588;48.840;10.064;2023-02-27T14:25:52;97003.66;;;2.21;nan
34328;BME280;20588;48.840;10.064;2023-02-27T14:31:00;97004.88;;;2.17;nan
34328;BME280;20588;48.840;10.064;2023-02-27T14:33:41;96994.47;;;2.71;nan
34328;BME280;20588;48.840;10.064;2023-02-27T14:36:16;96992.09;;;2.95;nan
34328;BME280;20588;48.840;10.064;2023-02-27T14:38:43;97007.97;;;2.72;nan
34328;BME280;20588;48.840;10.064;2023-02-27T14:43:59;96993.34;;;2.66;nan
34328;BME280;20588;48.840;10.064;2023-02-27T14:46:29;96994.22;;;3.08;nan
34328;BME280;20588;48.840;10.064;2023-02-27T14:49:01;96998.13;;;3.28;nan
34328;BME280;20588;48.840;10.064;2023-02-27T14:51:30;97005.22;;;3.58;nan
34328;BME280;20588;48.840;10.064;2023-02-27T14:54:06;97012.97;;;3.48;nan
34328;BME280;20588;48.840;10.064;2023-02-27T14:56:33;97004.94;;;3.19;nan
34328;BME280;20588;48.840;10.064;2023-02-27T14:59:00;97014.34;;;3.27;nan
34328;BME280;20588;48.840;10.064;2023-02-27T15:01:27;97006.75;;;3.09;nan
34328;BME280;20588;48.840;10.064;2023-02-27T15:03:58;97014.41;;;2.84;nan
34328;BME280;20588;48.840;10.064;2023-02-27T15:09:00;97020.44;;;2.57;nan
34328;BME280;20588;48.840;10.064;2023-02-27T15:11:27;97022.22;;;2.65;nan
34328;BME280;20588;48.840;10.064;2023-02-27T15:14:01;97016.38;;;2.47;nan
34328;BME280;20588;48.840;10.064;2023-02-27T15:16:38;97021.28;;;2.23;nan
34328;BME280;20588;48.840;10.064;2023-02-27T15:19:44;97015.34;;;2.40;nan
34328;BME280;20588;48.840;10.064;2023-02-27T15:22:17;97009.69;;;2.63;nan
34328;BME280;20588;48.840;10.064;2023-02-27T15:24:46;97019.03;;;2.63;nan
34328;BME280;20588;48.840;10.064;2023-02-27T15:27:17;97024.19;;;2.53;nan
34328;BME280;20588;48.840;10.064;2023-02-27T15:29:47;97027.13;;;2.41;nan
34328;BME280;20588;48.840;10.064;2023-02-27T15:32:20;97029.22;;;2.45;nan
34328;BME280;20588;48.840;10.064;2023-02-27T15:34:48;97029.59;;;2.33;nan
34328;BME280;20588;48.840;10.064;2023-02-27T15:37:23;97033.66;;;2.08;nan
34328;BME280;20588;48.840;10.064;2023-02-27T15:39:52;97027.53;;;1.83;nan
34328;BME280;20588;48.840;10.064;2023-02-27T15:42:28;97020.69;;;1.94;nan
34328;BME280;20588;48.840;10.064;2023-02-27T15:44:56;97026.03;;;1.91;nan
34328;BME280;20588;48.840;10.064;2023-02-27T15:47:28;97030.78;;;1.58;nan
34328;BME280;20588;48.840;10.064;2023-02-27T15:50:08;97034.88;;;1.59;nan
34328;BME280;20588;48.840;10.064;2023-02-27T15:52:42;97039.03;;;1.60;nan
34328;BME280;20588;48.840;10.064;2023-02-27T15:55:20;97041.28;;;1.63;nan
34328;BME280;20588;48.840;10.064;2023-02-27T15:57:47;97037.72;;;1.20;nan
34328;BME280;20588;48.840;10.064;2023-02-27T16:00:16;97052.44;;;1.16;nan
34328;BME280;20588;48.840;10.064;2023-02-27T16:02:46;97053.66;;;1.39;nan
34328;BME280;20588;48.840;10.064;2023-02-27T16:05:26;97046.59;;;1.43;nan
34328;BME280;20588;48.840;10.064;2023-02-27T16:07:55;97048.97;;;1.44;nan
34328;BME280;20588;48.840;10.064;2023-02-27T16:10:28;97061.34;;;1.20;nan